Fort Benning, Georgia
Current Conditions -  °F | °C
As of 6:08 AM on Sunday 23 Nov 2014 (Local Time) from KLSF Reporting Station
Light Rain Light Rain  
Wind Chill: 61°   Ceiling: 1000
Heat Index: 61°   Visibility: 6mi
Dew Point: 59°   Wind: 5mph
Humidity: 94%   Direction: 90°E
Pressure: 29.96"   Gusts: NA
Location:  32.35°N, 84.97°W
Report Text: KLSF 231108Z AUTO 09004KT 6SM R33/5000FT -RA BR FEW007 OVC010 16/15 A2996 RMK AO2 CIG 009V011
Loading
Personal Weather Stations






























Interactive Weather Map New forecast layout! Learn more

10-Day Weather Forecast

Advertisements
Track Severe Weather on mobile